sensor_id;sensor_type;location;lat;lon;timestamp;temperature;humidity
484;DHT22;228;48.922;12.198;2023-02-01T00:00:46;4.30;83.50
484;DHT22;228;48.922;12.198;2023-02-01T00:03:12;4.30;83.00
484;DHT22;228;48.922;12.198;2023-02-01T00:05:40;4.20;83.10
484;DHT22;228;48.922;12.198;2023-02-01T00:08:06;4.50;82.30
484;DHT22;228;48.922;12.198;2023-02-01T00:10:32;4.50;82.00
484;DHT22;228;48.922;12.198;2023-02-01T00:12:58;4.40;81.70
484;DHT22;228;48.922;12.198;2023-02-01T00:15:23;4.20;82.30
484;DHT22;228;48.922;12.198;2023-02-01T00:17:54;4.20;84.00
484;DHT22;228;48.922;12.198;2023-02-01T00:20:21;4.40;84.50
484;DHT22;228;48.922;12.198;2023-02-01T00:22:47;4.20;84.30
484;DHT22;228;48.922;12.198;2023-02-01T00:25:13;4.10;85.10
484;DHT22;228;48.922;12.198;2023-02-01T00:27:39;4.00;85.30
484;DHT22;228;48.922;12.198;2023-02-01T00:30:06;3.90;85.50
484;DHT22;228;48.922;12.198;2023-02-01T00:32:33;4.30;85.50
484;DHT22;228;48.922;12.198;2023-02-01T00:34:58;4.00;84.80
484;DHT22;228;48.922;12.198;2023-02-01T00:37:24;4.20;84.70
484;DHT22;228;48.922;12.198;2023-02-01T00:39:50;4.30;84.00
484;DHT22;228;48.922;12.198;2023-02-01T00:42:16;4.20;83.90
484;DHT22;228;48.922;12.198;2023-02-01T00:44:42;4.30;84.10
484;DHT22;228;48.922;12.198;2023-02-01T00:47:08;4.40;83.20
484;DHT22;228;48.922;12.198;2023-02-01T00:49:34;4.30;83.70
484;DHT22;228;48.922;12.198;2023-02-01T00:52:00;4.20;83.90
484;DHT22;228;48.922;12.198;2023-02-01T00:54:26;4.20;84.00
484;DHT22;228;48.922;12.198;2023-02-01T00:56:52;4.30;83.80
484;DHT22;228;48.922;12.198;2023-02-01T00:59:18;4.20;83.80
484;DHT22;228;48.922;12.198;2023-02-01T01:01:44;4.40;84.00
484;DHT22;228;48.922;12.198;2023-02-01T01:04:10;4.30;83.60
484;DHT22;228;48.922;12.198;2023-02-01T01:06:36;4.30;83.50
484;DHT22;228;48.922;12.198;2023-02-01T01:09:05;4.30;83.40
484;DHT22;228;48.922;12.198;2023-02-01T01:11:35;4.30;83.90
484;DHT22;228;48.922;12.198;2023-02-01T01:14:05;4.50;83.50
484;DHT22;228;48.922;12.198;2023-02-01T01:16:32;4.50;83.60
484;DHT22;228;48.922;12.198;2023-02-01T01:18:59;4.70;82.60
484;DHT22;228;48.922;12.198;2023-02-01T01:21:26;4.60;82.40
484;DHT22;228;48.922;12.198;2023-02-01T01:23:52;4.50;82.40
484;DHT22;228;48.922;12.198;2023-02-01T01:26:22;4.70;82.60
484;DHT22;228;48.922;12.198;2023-02-01T01:28:49;4.80;82.30
484;DHT22;228;48.922;12.198;2023-02-01T01:31:17;4.60;82.00
484;DHT22;228;48.922;12.198;2023-02-01T01:33:44;4.60;82.50
484;DHT22;228;48.922;12.198;2023-02-01T01:36:11;4.70;82.40
484;DHT22;228;48.922;12.198;2023-02-01T01:38:39;4.70;82.60
484;DHT22;228;48.922;12.198;2023-02-01T01:41:08;4.70;82.40
484;DHT22;228;48.922;12.198;2023-02-01T01:43:52;4.80;81.90
484;DHT22;228;48.922;12.198;2023-02-01T01:49:15;4.90;81.80
484;DHT22;228;48.922;12.198;2023-02-01T01:51:51;4.90;81.70
484;DHT22;228;48.922;12.198;2023-02-01T01:54:23;4.80;82.70
484;DHT22;228;48.922;12.198;2023-02-01T01:56:57;4.80;82.10
484;DHT22;228;48.922;12.198;2023-02-01T01:59:26;4.80;82.30
484;DHT22;228;48.922;12.198;2023-02-01T02:01:52;4.70;82.50
484;DHT22;228;48.922;12.198;2023-02-01T02:04:19;4.70;82.50
484;DHT22;228;48.922;12.198;2023-02-01T02:09:40;4.70;82.90
484;DHT22;228;48.922;12.198;2023-02-01T02:12:09;4.70;82.80
484;DHT22;228;48.922;12.198;2023-02-01T02:14:36;4.70;82.50
484;DHT22;228;48.922;12.198;2023-02-01T02:20:51;5.00;82.00
484;DHT22;228;48.922;12.198;2023-02-01T02:27:09;5.00;82.00
484;DHT22;228;48.922;12.198;2023-02-01T02:36:25;4.90;82.30
484;DHT22;228;48.922;12.198;2023-02-01T02:39:15;4.90;82.10
484;DHT22;228;48.922;12.198;2023-02-01T02:44:56;5.40;80.10
484;DHT22;228;48.922;12.198;2023-02-01T02:54:05;5.30;80.40
484;DHT22;228;48.922;12.198;2023-02-01T02:56:54;5.30;79.80
484;DHT22;228;48.922;12.198;2023-02-01T02:59:43;5.00;81.80
484;DHT22;228;48.922;12.198;2023-02-01T03:02:32;4.90;82.90
484;DHT22;228;48.922;12.198;2023-02-01T03:05:16;4.70;84.30
484;DHT22;228;48.922;12.198;2023-02-01T03:12:54;4.70;85.10
484;DHT22;228;48.922;12.198;2023-02-01T03:15:29;4.80;84.70
484;DHT22;228;48.922;12.198;2023-02-01T03:18:45;4.70;84.50
484;DHT22;228;48.922;12.198;2023-02-01T03:21:40;4.90;84.50
484;DHT22;228;48.922;12.198;2023-02-01T03:24:12;4.80;84.00
484;DHT22;228;48.922;12.198;2023-02-01T03:26:48;4.80;84.10
484;DHT22;228;48.922;12.198;2023-02-01T03:29:23;4.70;84.40
484;DHT22;228;48.922;12.198;2023-02-01T03:31:51;4.80;84.50
484;DHT22;228;48.922;12.198;2023-02-01T03:34:18;4.80;84.30
484;DHT22;228;48.922;12.198;2023-02-01T03:39:19;4.80;83.80
484;DHT22;228;48.922;12.198;2023-02-01T03:41:53;5.00;83.30
484;DHT22;228;48.922;12.198;2023-02-01T03:44:34;4.90;82.80
484;DHT22;228;48.922;12.198;2023-02-01T03:52:13;5.00;82.90
484;DHT22;228;48.922;12.198;2023-02-01T03:54:45;4.90;82.80
484;DHT22;228;48.922;12.198;2023-02-01T03:57:14;4.80;82.70
484;DHT22;228;48.922;12.198;2023-02-01T03:59:44;4.80;83.20
484;DHT22;228;48.922;12.198;2023-02-01T04:02:11;4.70;82.70
484;DHT22;228;48.922;12.198;2023-02-01T04:04:37;4.70;83.10
484;DHT22;228;48.922;12.198;2023-02-01T04:07:04;4.80;82.50
484;DHT22;228;48.922;12.198;2023-02-01T04:09:30;5.00;82.30
484;DHT22;228;48.922;12.198;2023-02-01T04:11:56;4.80;82.00
484;DHT22;228;48.922;12.198;2023-02-01T04:14:22;4.90;82.30
484;DHT22;228;48.922;12.198;2023-02-01T04:16:48;5.10;81.60
484;DHT22;228;48.922;12.198;2023-02-01T04:19:14;5.00;81.60
484;DHT22;228;48.922;12.198;2023-02-01T04:21:40;5.00;81.70
484;DHT22;228;48.922;12.198;2023-02-01T04:24:07;4.90;81.90
484;DHT22;228;48.922;12.198;2023-02-01T04:26:34;5.00;81.60
484;DHT22;228;48.922;12.198;2023-02-01T04:29:00;5.10;81.40
484;DHT22;228;48.922;12.198;2023-02-01T04:31:26;5.20;81.10
484;DHT22;228;48.922;12.198;2023-02-01T04:33:54;5.10;80.20
484;DHT22;228;48.922;12.198;2023-02-01T04:36:23;4.90;81.60
484;DHT22;228;48.922;12.198;2023-02-01T04:38:50;5.30;81.30
484;DHT22;228;48.922;12.198;2023-02-01T04:41:16;5.20;80.20
484;DHT22;228;48.922;12.198;2023-02-01T04:43:48;5.20;80.70
484;DHT22;228;48.922;12.198;2023-02-01T04:46:15;5.00;80.90
484;DHT22;228;48.922;12.198;2023-02-01T04:48:41;5.20;80.50
484;DHT22;228;48.922;12.198;2023-02-01T04:51:08;5.40;79.90
484;DHT22;228;48.922;12.198;2023-02-01T04:53:36;5.20;79.80
484;DHT22;228;48.922;12.198;2023-02-01T04:56:03;5.10;79.80
484;DHT22;228;48.922;12.198;2023-02-01T04:58:29;5.30;79.60
484;DHT22;228;48.922;12.198;2023-02-01T05:00:55;5.20;79.20
484;DHT22;228;48.922;12.198;2023-02-01T05:03:21;5.20;79.20
484;DHT22;228;48.922;12.198;2023-02-01T05:05:48;5.60;78.50
484;DHT22;228;48.922;12.198;2023-02-01T05:08:14;5.40;78.60
484;DHT22;228;48.922;12.198;2023-02-01T05:10:41;5.40;78.90
484;DHT22;228;48.922;12.198;2023-02-01T05:13:08;5.20;78.90
484;DHT22;228;48.922;12.198;2023-02-01T05:15:53;5.10;79.50
484;DHT22;228;48.922;12.198;2023-02-01T05:18:19;5.20;79.40
484;DHT22;228;48.922;12.198;2023-02-01T05:20:45;5.10;79.60
484;DHT22;228;48.922;12.198;2023-02-01T05:23:11;5.10;80.20
484;DHT22;228;48.922;12.198;2023-02-01T05:25:37;5.30;79.80
484;DHT22;228;48.922;12.198;2023-02-01T05:28:03;5.20;79.60
484;DHT22;228;48.922;12.198;2023-02-01T05:30:29;5.20;79.50
484;DHT22;228;48.922;12.198;2023-02-01T05:32:55;5.20;78.90
484;DHT22;228;48.922;12.198;2023-02-01T05:35:21;5.10;79.30
484;DHT22;228;48.922;12.198;2023-02-01T05:37:48;5.10;79.50
484;DHT22;228;48.922;12.198;2023-02-01T05:40:14;5.40;78.80
484;DHT22;228;48.922;12.198;2023-02-01T05:42:40;5.40;78.00
484;DHT22;228;48.922;12.198;2023-02-01T05:45:07;5.50;77.70
484;DHT22;228;48.922;12.198;2023-02-01T05:47:33;5.60;77.70
484;DHT22;228;48.922;12.198;2023-02-01T05:49:59;5.50;77.30
484;DHT22;228;48.922;12.198;2023-02-01T05:52:25;5.30;78.00
484;DHT22;228;48.922;12.198;2023-02-01T05:54:51;5.10;78.80
484;DHT22;228;48.922;12.198;2023-02-01T05:57:18;5.10;78.50
484;DHT22;228;48.922;12.198;2023-02-01T05:59:44;5.10;78.80
484;DHT22;228;48.922;12.198;2023-02-01T06:02:15;5.30;78.50
484;DHT22;228;48.922;12.198;2023-02-01T06:04:41;5.50;77.90
484;DHT22;228;48.922;12.198;2023-02-01T06:07:08;5.20;77.80
484;DHT22;228;48.922;12.198;2023-02-01T06:09:36;5.00;79.00
484;DHT22;228;48.922;12.198;2023-02-01T06:12:03;5.10;79.10
484;DHT22;228;48.922;12.198;2023-02-01T06:14:30;5.00;79.50
484;DHT22;228;48.922;12.198;2023-02-01T06:16:56;4.90;80.20
484;DHT22;228;48.922;12.198;2023-02-01T06:19:23;4.90;80.70
484;DHT22;228;48.922;12.198;2023-02-01T06:21:49;4.90;80.40
484;DHT22;228;48.922;12.198;2023-02-01T06:24:16;4.80;80.50
484;DHT22;228;48.922;12.198;2023-02-01T06:26:42;4.80;80.50
484;DHT22;228;48.922;12.198;2023-02-01T06:29:10;4.80;80.50
484;DHT22;228;48.922;12.198;2023-02-01T06:31:36;4.70;80.80
484;DHT22;228;48.922;12.198;2023-02-01T06:34:02;4.70;80.80
484;DHT22;228;48.922;12.198;2023-02-01T06:36:29;4.60;80.80
484;DHT22;228;48.922;12.198;2023-02-01T06:38:58;4.60;81.80
484;DHT22;228;48.922;12.198;2023-02-01T06:41:25;4.60;81.70
484;DHT22;228;48.922;12.198;2023-02-01T06:43:52;4.60;82.00
484;DHT22;228;48.922;12.198;2023-02-01T06:46:18;4.60;82.00
484;DHT22;228;48.922;12.198;2023-02-01T06:48:44;4.50;81.50
484;DHT22;228;48.922;12.198;2023-02-01T06:51:31;4.60;81.80
484;DHT22;228;48.922;12.198;2023-02-01T06:53:58;4.60;82.00
484;DHT22;228;48.922;12.198;2023-02-01T06:56:24;4.50;81.60
484;DHT22;228;48.922;12.198;2023-02-01T06:58:51;4.50;82.10
484;DHT22;228;48.922;12.198;2023-02-01T07:01:17;4.50;82.20
484;DHT22;228;48.922;12.198;2023-02-01T07:03:47;4.60;82.20
484;DHT22;228;48.922;12.198;2023-02-01T07:06:17;4.60;82.00
484;DHT22;228;48.922;12.198;2023-02-01T07:08:44;4.70;81.50
484;DHT22;228;48.922;12.198;2023-02-01T07:11:12;4.60;81.70
484;DHT22;228;48.922;12.198;2023-02-01T07:13:39;4.60;83.10
484;DHT22;228;48.922;12.198;2023-02-01T07:16:08;4.50;83.70
484;DHT22;228;48.922;12.198;2023-02-01T07:18:36;4.40;84.30
484;DHT22;228;48.922;12.198;2023-02-01T07:21:03;4.40;84.90
484;DHT22;228;48.922;12.198;2023-02-01T07:23:29;4.60;84.30
484;DHT22;228;48.922;12.198;2023-02-01T07:26:01;4.60;84.90
484;DHT22;228;48.922;12.198;2023-02-01T07:28:30;4.50;85.10
484;DHT22;228;48.922;12.198;2023-02-01T07:31:12;4.30;85.60
484;DHT22;228;48.922;12.198;2023-02-01T07:33:41;4.50;86.10
484;DHT22;228;48.922;12.198;2023-02-01T07:36:11;4.60;85.40
484;DHT22;228;48.922;12.198;2023-02-01T07:38:39;4.50;85.20
484;DHT22;228;48.922;12.198;2023-02-01T07:41:06;4.60;85.60
484;DHT22;228;48.922;12.198;2023-02-01T07:43:32;4.60;84.90
484;DHT22;228;48.922;12.198;2023-02-01T07:45:59;4.50;85.60
484;DHT22;228;48.922;12.198;2023-02-01T07:48:26;4.50;85.90
484;DHT22;228;48.922;12.198;2023-02-01T07:51:03;4.50;85.80
484;DHT22;228;48.922;12.198;2023-02-01T07:53:31;4.80;86.00
484;DHT22;228;48.922;12.198;2023-02-01T07:55:58;5.00;85.00
484;DHT22;228;48.922;12.198;2023-02-01T07:58:26;4.90;85.60
484;DHT22;228;48.922;12.198;2023-02-01T08:00:53;4.90;85.80
484;DHT22;228;48.922;12.198;2023-02-01T08:03:38;4.70;86.10
484;DHT22;228;48.922;12.198;2023-02-01T08:06:04;5.00;86.70
484;DHT22;228;48.922;12.198;2023-02-01T08:08:30;5.00;86.50
484;DHT22;228;48.922;12.198;2023-02-01T08:10:58;5.00;86.10
484;DHT22;228;48.922;12.198;2023-02-01T08:13:25;5.00;86.20
484;DHT22;228;48.922;12.198;2023-02-01T08:15:51;4.90;86.00
484;DHT22;228;48.922;12.198;2023-02-01T08:18:17;4.80;87.60
484;DHT22;228;48.922;12.198;2023-02-01T08:20:44;5.00;87.60
484;DHT22;228;48.922;12.198;2023-02-01T08:23:12;4.80;86.90
484;DHT22;228;48.922;12.198;2023-02-01T08:25:38;4.80;87.50
484;DHT22;228;48.922;12.198;2023-02-01T08:28:06;4.90;87.50
484;DHT22;228;48.922;12.198;2023-02-01T08:30:32;4.90;87.10
484;DHT22;228;48.922;12.198;2023-02-01T08:32:58;4.40;87.30
484;DHT22;228;48.922;12.198;2023-02-01T08:35:24;4.20;88.60
484;DHT22;228;48.922;12.198;2023-02-01T08:37:51;4.30;89.20
484;DHT22;228;48.922;12.198;2023-02-01T08:40:17;4.00;89.70
484;DHT22;228;48.922;12.198;2023-02-01T08:42:43;4.30;89.90
484;DHT22;228;48.922;12.198;2023-02-01T08:45:25;4.30;89.00
484;DHT22;228;48.922;12.198;2023-02-01T08:47:54;4.50;89.00
484;DHT22;228;48.922;12.198;2023-02-01T08:50:21;4.40;89.00
484;DHT22;228;48.922;12.198;2023-02-01T08:52:48;4.40;89.70
484;DHT22;228;48.922;12.198;2023-02-01T08:55:18;4.50;88.30
484;DHT22;228;48.922;12.198;2023-02-01T08:57:45;4.30;88.40
484;DHT22;228;48.922;12.198;2023-02-01T09:00:14;4.30;88.50
484;DHT22;228;48.922;12.198;2023-02-01T09:02:42;4.50;89.30
484;DHT22;228;48.922;12.198;2023-02-01T09:05:08;4.50;89.00
484;DHT22;228;48.922;12.198;2023-02-01T09:07:36;4.60;88.90
484;DHT22;228;48.922;12.198;2023-02-01T09:10:04;4.40;88.70
484;DHT22;228;48.922;12.198;2023-02-01T09:12:32;4.40;89.40
484;DHT22;228;48.922;12.198;2023-02-01T09:14:59;4.40;88.80
484;DHT22;228;48.922;12.198;2023-02-01T09:17:28;4.40;89.00
484;DHT22;228;48.922;12.198;2023-02-01T09:19:55;4.30;89.30
484;DHT22;228;48.922;12.198;2023-02-01T09:22:21;4.40;89.70
484;DHT22;228;48.922;12.198;2023-02-01T09:24:49;4.40;89.60
484;DHT22;228;48.922;12.198;2023-02-01T09:27:15;4.60;89.80
484;DHT22;228;48.922;12.198;2023-02-01T09:29:41;4.80;89.00
484;DHT22;228;48.922;12.198;2023-02-01T09:32:07;4.90;88.40
484;DHT22;228;48.922;12.198;2023-02-01T09:34:34;5.00;87.20
484;DHT22;228;48.922;12.198;2023-02-01T09:37:01;5.00;87.20
484;DHT22;228;48.922;12.198;2023-02-01T09:39:28;4.90;86.70
484;DHT22;228;48.922;12.198;2023-02-01T09:42:21;4.90;86.70
484;DHT22;228;48.922;12.198;2023-02-01T09:48:12;5.00;86.90
484;DHT22;228;48.922;12.198;2023-02-01T09:51:13;5.00;87.50
484;DHT22;228;48.922;12.198;2023-02-01T09:53:48;5.20;86.30
484;DHT22;228;48.922;12.198;2023-02-01T09:56:24;5.10;87.60
484;DHT22;228;48.922;12.198;2023-02-01T09:59:10;5.10;86.60
484;DHT22;228;48.922;12.198;2023-02-01T10:01:49;5.20;86.40
484;DHT22;228;48.922;12.198;2023-02-01T10:04:16;5.30;86.30
484;DHT22;228;48.922;12.198;2023-02-01T10:09:41;5.60;85.40
484;DHT22;228;48.922;12.198;2023-02-01T10:12:16;5.50;85.50
484;DHT22;228;48.922;12.198;2023-02-01T10:24:17;5.30;87.00
484;DHT22;228;48.922;12.198;2023-02-01T10:29:43;5.50;87.40
484;DHT22;228;48.922;12.198;2023-02-01T10:32:23;5.50;86.60
484;DHT22;228;48.922;12.198;2023-02-01T10:35:02;5.70;86.10
484;DHT22;228;48.922;12.198;2023-02-01T10:37:34;5.60;86.00
484;DHT22;228;48.922;12.198;2023-02-01T10:40:22;5.70;85.90
484;DHT22;228;48.922;12.198;2023-02-01T10:42:52;5.80;84.90
484;DHT22;228;48.922;12.198;2023-02-01T10:45:22;5.80;84.20
484;DHT22;228;48.922;12.198;2023-02-01T10:47:53;5.80;84.30
484;DHT22;228;48.922;12.198;2023-02-01T10:50:41;6.10;84.00
484;DHT22;228;48.922;12.198;2023-02-01T10:53:34;6.20;84.00
484;DHT22;228;48.922;12.198;2023-02-01T10:56:13;6.40;82.80
484;DHT22;228;48.922;12.198;2023-02-01T10:58:46;6.50;81.90
484;DHT22;228;48.922;12.198;2023-02-01T11:01:36;6.40;81.70
484;DHT22;228;48.922;12.198;2023-02-01T11:04:06;6.50;81.80
484;DHT22;228;48.922;12.198;2023-02-01T11:17:03;7.20;77.30
484;DHT22;228;48.922;12.198;2023-02-01T11:19:38;7.20;76.90
484;DHT22;228;48.922;12.198;2023-02-01T11:22:04;7.10;76.80
484;DHT22;228;48.922;12.198;2023-02-01T11:24:36;7.90;77.30
484;DHT22;228;48.922;12.198;2023-02-01T11:27:05;7.90;74.40
484;DHT22;228;48.922;12.198;2023-02-01T11:29:43;8.00;74.00
484;DHT22;228;48.922;12.198;2023-02-01T11:32:13;8.40;74.30
484;DHT22;228;48.922;12.198;2023-02-01T11:37:21;8.10;73.10
484;DHT22;228;48.922;12.198;2023-02-01T11:39:58;8.10;72.80
484;DHT22;228;48.922;12.198;2023-02-01T11:42:27;8.50;72.40
484;DHT22;228;48.922;12.198;2023-02-01T11:45:19;8.90;69.40
484;DHT22;228;48.922;12.198;2023-02-01T11:47:46;9.00;67.40
484;DHT22;228;48.922;12.198;2023-02-01T12:07:50;8.40;69.60
484;DHT22;228;48.922;12.198;2023-02-01T12:10:21;8.10;70.60
484;DHT22;228;48.922;12.198;2023-02-01T12:19:16;7.80;73.60
484;DHT22;228;48.922;12.198;2023-02-01T12:21:35;8.00;71.90
484;DHT22;228;48.922;12.198;2023-02-01T12:26:56;7.80;72.50
484;DHT22;228;48.922;12.198;2023-02-01T12:41:03;7.30;72.70
484;DHT22;228;48.922;12.198;2023-02-01T12:46:17;6.60;75.90
484;DHT22;228;48.922;12.198;2023-02-01T12:51:47;6.00;79.30
484;DHT22;228;48.922;12.198;2023-02-01T12:57:14;5.80;81.40
484;DHT22;228;48.922;12.198;2023-02-01T12:59:52;5.50;82.70
484;DHT22;228;48.922;12.198;2023-02-01T13:03:19;5.40;83.30
484;DHT22;228;48.922;12.198;2023-02-01T13:05:51;5.50;83.40
484;DHT22;228;48.922;12.198;2023-02-01T13:11:24;6.10;83.10
484;DHT22;228;48.922;12.198;2023-02-01T13:17:21;5.70;83.50
484;DHT22;228;48.922;12.198;2023-02-01T13:20:03;5.50;84.50
484;DHT22;228;48.922;12.198;2023-02-01T13:22:44;5.70;85.60
484;DHT22;228;48.922;12.198;2023-02-01T13:25:19;5.70;85.40
484;DHT22;228;48.922;12.198;2023-02-01T13:27:57;5.60;84.50
484;DHT22;228;48.922;12.198;2023-02-01T13:37:03;5.90;85.30
484;DHT22;228;48.922;12.198;2023-02-01T13:39:59;6.20;84.10
484;DHT22;228;48.922;12.198;2023-02-01T13:42:54;5.90;83.80
484;DHT22;228;48.922;12.198;2023-02-01T13:45:24;5.90;85.00
484;DHT22;228;48.922;12.198;2023-02-01T13:47:58;5.90;85.10
484;DHT22;228;48.922;12.198;2023-02-01T13:53:11;5.70;84.60
484;DHT22;228;48.922;12.198;2023-02-01T13:55:54;5.70;85.10
484;DHT22;228;48.922;12.198;2023-02-01T13:58:37;5.70;84.50
484;DHT22;228;48.922;12.198;2023-02-01T14:04:06;5.70;84.70
484;DHT22;228;48.922;12.198;2023-02-01T14:06:35;5.60;84.20
484;DHT22;228;48.922;12.198;2023-02-01T14:11:49;5.60;83.30
484;DHT22;228;48.922;12.198;2023-02-01T14:19:32;5.80;83.60
484;DHT22;228;48.922;12.198;2023-02-01T14:22:01;5.80;83.10
484;DHT22;228;48.922;12.198;2023-02-01T14:24:56;5.90;82.00
484;DHT22;228;48.922;12.198;2023-02-01T14:27:26;5.80;81.30
484;DHT22;228;48.922;12.198;2023-02-01T14:29:59;5.70;81.00
484;DHT22;228;48.922;12.198;2023-02-01T14:32:32;5.70;80.20
484;DHT22;228;48.922;12.198;2023-02-01T14:35:01;5.70;79.50
484;DHT22;228;48.922;12.198;2023-02-01T14:37:35;5.80;79.10
484;DHT22;228;48.922;12.198;2023-02-01T14:40:05;5.80;77.70
484;DHT22;228;48.922;12.198;2023-02-01T14:55:40;6.00;76.70
484;DHT22;228;48.922;12.198;2023-02-01T15:00:56;6.00;76.80
484;DHT22;228;48.922;12.198;2023-02-01T15:08:48;5.50;80.10
484;DHT22;228;48.922;12.198;2023-02-01T15:11:15;5.60;80.00
484;DHT22;228;48.922;12.198;2023-02-01T15:13:51;5.60;80.00
484;DHT22;228;48.922;12.198;2023-02-01T15:16:21;5.20;80.20
484;DHT22;228;48.922;12.198;2023-02-01T15:18:49;5.30;80.50
484;DHT22;228;48.922;12.198;2023-02-01T15:21:19;5.40;80.20
484;DHT22;228;48.922;12.198;2023-02-01T15:23:49;5.20;79.80
484;DHT22;228;48.922;12.198;2023-02-01T15:26:30;5.50;80.00
484;DHT22;228;48.922;12.198;2023-02-01T15:29:00;5.50;79.70
484;DHT22;228;48.922;12.198;2023-02-01T15:31:41;5.60;79.70
484;DHT22;228;48.922;12.198;2023-02-01T15:34:10;5.60;78.40
484;DHT22;228;48.922;12.198;2023-02-01T15:36:37;5.60;78.30
484;DHT22;228;48.922;12.198;2023-02-01T15:39:23;5.80;78.20
484;DHT22;228;48.922;12.198;2023-02-01T15:41:55;6.20;76.40
484;DHT22;228;48.922;12.198;2023-02-01T15:44:54;6.00;75.40
484;DHT22;228;48.922;12.198;2023-02-01T15:47:28;5.80;75.30
484;DHT22;228;48.922;12.198;2023-02-01T15:50:00;6.20;75.40
484;DHT22;228;48.922;12.198;2023-02-01T15:52:36;6.40;74.00
484;DHT22;228;48.922;12.198;2023-02-01T15:55:34;6.10;73.90
484;DHT22;228;48.922;12.198;2023-02-01T15:58:07;5.80;73.60
484;DHT22;228;48.922;12.198;2023-02-01T16:00:46;6.00;73.50
484;DHT22;228;48.922;12.198;2023-02-01T16:03:41;5.80;73.40
484;DHT22;228;48.922;12.198;2023-02-01T16:06:12;6.00;72.40
484;DHT22;228;48.922;12.198;2023-02-01T16:09:01;6.10;71.40
484;DHT22;228;48.922;12.198;2023-02-01T16:11:48;6.20;72.10
484;DHT22;228;48.922;12.198;2023-02-01T16:14:21;6.20;71.60
484;DHT22;228;48.922;12.198;2023-02-01T16:16:48;6.40;70.40
484;DHT22;228;48.922;12.198;2023-02-01T16:19:14;6.40;70.10
484;DHT22;228;48.922;12.198;2023-02-01T16:21:40;6.50;68.50
484;DHT22;228;48.922;12.198;2023-02-01T16:24:06;6.40;68.50
484;DHT22;228;48.922;12.198;2023-02-01T16:26:33;6.60;68.60
484;DHT22;228;48.922;12.198;2023-02-01T16:29:00;6.50;68.20
484;DHT22;228;48.922;12.198;2023-02-01T16:31:30;6.50;68.70
484;DHT22;228;48.922;12.198;2023-02-01T16:33:58;6.50;68.70
484;DHT22;228;48.922;12.198;2023-02-01T16:36:25;6.40;67.70
484;DHT22;228;48.922;12.198;2023-02-01T16:38:51;6.10;68.60
484;DHT22;228;48.922;12.198;2023-02-01T16:41:20;6.20;68.70
484;DHT22;228;48.922;12.198;2023-02-01T16:43:52;6.10;68.00
484;DHT22;228;48.922;12.198;2023-02-01T16:46:22;6.30;68.80
484;DHT22;228;48.922;12.198;2023-02-01T16:48:58;6.20;68.80
484;DHT22;228;48.922;12.198;2023-02-01T16:51:30;6.30;67.60
484;DHT22;228;48.922;12.198;2023-02-01T16:53:59;6.00;68.70
484;DHT22;228;48.922;12.198;2023-02-01T16:56:30;6.20;69.10
484;DHT22;228;48.922;12.198;2023-02-01T16:58:58;6.10;69.00
484;DHT22;228;48.922;12.198;2023-02-01T17:01:24;6.00;69.00
484;DHT22;228;48.922;12.198;2023-02-01T17:03:50;6.00;69.40
484;DHT22;228;48.922;12.198;2023-02-01T17:06:21;6.10;69.10
484;DHT22;228;48.922;12.198;2023-02-01T17:08:54;5.90;69.70
484;DHT22;228;48.922;12.198;2023-02-01T17:11:23;5.80;70.50
484;DHT22;228;48.922;12.198;2023-02-01T17:13:50;5.80;70.60
484;DHT22;228;48.922;12.198;2023-02-01T17:16:27;6.10;70.70
484;DHT22;228;48.922;12.198;2023-02-01T17:19:06;5.90;70.30
484;DHT22;228;48.922;12.198;2023-02-01T17:22:04;6.00;70.00
484;DHT22;228;48.922;12.198;2023-02-01T17:24:31;6.20;69.20
484;DHT22;228;48.922;12.198;2023-02-01T17:26:57;6.00;69.10
484;DHT22;228;48.922;12.198;2023-02-01T17:29:23;6.00;70.90
484;DHT22;228;48.922;12.198;2023-02-01T17:31:53;6.10;70.60
484;DHT22;228;48.922;12.198;2023-02-01T17:34:20;6.20;70.50
484;DHT22;228;48.922;12.198;2023-02-01T17:36:48;6.10;70.10
484;DHT22;228;48.922;12.198;2023-02-01T17:39:15;6.00;71.10
484;DHT22;228;48.922;12.198;2023-02-01T17:42:00;6.00;70.90
484;DHT22;228;48.922;12.198;2023-02-01T17:44:27;6.00;70.60
484;DHT22;228;48.922;12.198;2023-02-01T17:46:53;6.00;70.60
484;DHT22;228;48.922;12.198;2023-02-01T17:49:22;6.00;70.10
484;DHT22;228;48.922;12.198;2023-02-01T17:51:48;5.80;70.10
484;DHT22;228;48.922;12.198;2023-02-01T17:54:17;5.80;70.70
484;DHT22;228;48.922;12.198;2023-02-01T17:56:45;5.90;70.70
484;DHT22;228;48.922;12.198;2023-02-01T17:59:14;5.70;70.70
484;DHT22;228;48.922;12.198;2023-02-01T18:01:40;5.80;70.70
484;DHT22;228;48.922;12.198;2023-02-01T18:04:15;5.70;70.10
484;DHT22;228;48.922;12.198;2023-02-01T18:06:44;5.80;70.10
484;DHT22;228;48.922;12.198;2023-02-01T18:09:10;5.70;70.30
484;DHT22;228;48.922;12.198;2023-02-01T18:11:36;5.90;69.60
484;DHT22;228;48.922;12.198;2023-02-01T18:14:02;6.00;69.70
484;DHT22;228;48.922;12.198;2023-02-01T18:16:31;6.00;69.10
484;DHT22;228;48.922;12.198;2023-02-01T18:18:58;6.00;70.10
484;DHT22;228;48.922;12.198;2023-02-01T18:21:40;6.00;69.80
484;DHT22;228;48.922;12.198;2023-02-01T18:24:11;6.00;69.70
484;DHT22;228;48.922;12.198;2023-02-01T18:26:38;5.90;70.00
484;DHT22;228;48.922;12.198;2023-02-01T18:29:04;6.00;70.10
484;DHT22;228;48.922;12.198;2023-02-01T18:31:31;5.90;69.90
484;DHT22;228;48.922;12.198;2023-02-01T18:33:59;5.90;70.40
484;DHT22;228;48.922;12.198;2023-02-01T18:36:26;5.80;69.60
484;DHT22;228;48.922;12.198;2023-02-01T18:38:53;5.70;70.60
484;DHT22;228;48.922;12.198;2023-02-01T18:41:23;5.80;70.50
484;DHT22;228;48.922;12.198;2023-02-01T18:43:50;5.70;69.80
484;DHT22;228;48.922;12.198;2023-02-01T18:46:17;6.10;70.10
484;DHT22;228;48.922;12.198;2023-02-01T18:48:44;6.10;69.20
484;DHT22;228;48.922;12.198;2023-02-01T18:51:20;6.20;68.60
484;DHT22;228;48.922;12.198;2023-02-01T18:53:48;6.40;68.60
484;DHT22;228;48.922;12.198;2023-02-01T18:56:15;6.30;67.40
484;DHT22;228;48.922;12.198;2023-02-01T18:58:45;6.20;68.40
484;DHT22;228;48.922;12.198;2023-02-01T19:01:16;6.10;69.20
484;DHT22;228;48.922;12.198;2023-02-01T19:03:43;6.20;69.40
484;DHT22;228;48.922;12.198;2023-02-01T19:06:09;6.30;69.00
484;DHT22;228;48.922;12.198;2023-02-01T19:08:36;6.20;68.90
484;DHT22;228;48.922;12.198;2023-02-01T19:11:06;6.10;69.90
484;DHT22;228;48.922;12.198;2023-02-01T19:13:37;6.10;69.70
484;DHT22;228;48.922;12.198;2023-02-01T19:16:11;6.10;69.20
484;DHT22;228;48.922;12.198;2023-02-01T19:18:38;6.20;69.60
484;DHT22;228;48.922;12.198;2023-02-01T19:21:10;6.00;69.10
484;DHT22;228;48.922;12.198;2023-02-01T19:23:38;5.90;69.90
484;DHT22;228;48.922;12.198;2023-02-01T19:26:13;5.80;70.30
484;DHT22;228;48.922;12.198;2023-02-01T19:28:41;5.90;70.50
484;DHT22;228;48.922;12.198;2023-02-01T19:31:11;6.00;69.70
484;DHT22;228;48.922;12.198;2023-02-01T19:33:37;6.20;69.20
484;DHT22;228;48.922;12.198;2023-02-01T19:36:05;6.10;69.30
484;DHT22;228;48.922;12.198;2023-02-01T19:38:34;6.10;69.40
484;DHT22;228;48.922;12.198;2023-02-01T19:41:00;6.20;68.90
484;DHT22;228;48.922;12.198;2023-02-01T19:43:27;6.10;69.00
484;DHT22;228;48.922;12.198;2023-02-01T19:45:53;5.90;69.30